Time;durP1;ratioP1;P1;durP2;ratioP2;P2;SDS_P1;SDS_P2;PMS_P1;PMS_P2;Temp;Humidity;BMP_temperature;BMP_pressure;BME280_temperature;BME280_humidity;BME280_pressure;Samples;Min_cycle;Max_cycle;Signal;HPM_P1;HPM_P2
2020/12/04 00:01:39;;;;;;;78.50;40.30;;;;;;;2.69;93.31;99455.94;5036346;28;20491;-77
2020/12/04 00:04:43;;;;;;;80.60;43.13;;;;;;;2.72;93.43;99458.34;5038026;28;20060;-77
2020/12/04 00:07:47;;;;;;;76.90;43.50;;;;;;;2.71;93.70;99455.81;5049031;28;20048;-77
2020/12/04 00:10:52;;;;;;;75.53;45.30;;;;;;;2.69;93.76;99455.94;5035699;28;20380;-77
2020/12/04 00:13:56;;;;;;;79.18;42.00;;;;;;;2.69;93.77;99450.63;5035598;28;20479;-77
2020/12/04 00:17:00;;;;;;;74.15;43.05;;;;;;;2.70;94.01;99457.59;5036676;28;20057;-77
2020/12/04 00:20:05;;;;;;;78.20;43.95;;;;;;;2.75;94.01;99460.78;5048222;28;20047;-77
2020/12/04 00:23:09;;;;;;;73.82;43.55;;;;;;;2.80;93.78;99434.81;5036263;28;20045;-77
2020/12/04 00:26:13;;;;;;;72.50;41.78;;;;;;;2.91;93.70;99428.75;5043052;28;20064;-76
2020/12/04 00:29:18;;;;;;;76.70;44.67;;;;;;;2.80;93.51;99434.81;5043296;28;20053;-76
2020/12/04 00:32:22;;;;;;;80.35;46.42;;;;;;;2.88;93.55;99416.56;5035507;28;20045;-76
2020/12/04 00:35:26;;;;;;;83.05;47.80;;;;;;;2.90;93.67;99408.50;5035252;28;20072;-77
2020/12/04 00:38:31;;;;;;;93.78;48.90;;;;;;;2.78;94.09;99401.44;5035153;28;20056;-77
2020/12/04 00:41:35;;;;;;;85.38;48.05;;;;;;;2.80;94.27;99405.66;5035082;28;20052;-77
2020/12/04 00:44:39;;;;;;;91.43;49.28;;;;;;;2.71;94.37;99411.63;5034802;28;20047;-77
2020/12/04 00:47:44;;;;;;;86.13;46.55;;;;;;;2.76;94.58;99400.69;5034827;28;20049;-78
2020/12/04 00:50:49;;;;;;;100.75;51.25;;;;;;;2.76;94.73;99398.03;5022740;28;20052;-77
2020/12/04 00:53:54;;;;;;;101.95;52.95;;;;;;;2.76;95.04;99409.50;4997178;28;20350;-77
2020/12/04 00:57:01;;;;;;;103.43;51.60;;;;;;;2.82;95.07;99400.25;4995373;28;20061;-76
2020/12/04 01:00:12;;;;;;;104.93;52.75;;;;;;;2.74;95.14;99387.53;4994192;28;20053;-76
2020/12/04 01:03:17;;;;;;;104.57;53.75;;;;;;;2.79;95.18;99387.22;4994942;28;20496;-76
2020/12/04 01:06:21;;;;;;;99.78;53.67;;;;;;;2.74;95.09;99379.59;4995263;28;20054;-76
2020/12/04 01:09:26;;;;;;;100.43;54.60;;;;;;;2.74;95.45;99395.47;4995401;28;20073;-77
2020/12/04 01:12:30;;;;;;;99.05;52.95;;;;;;;2.74;95.36;99408.72;4995167;28;20057;-76
2020/12/04 01:15:34;;;;;;;97.63;54.10;;;;;;;2.73;95.46;99396.47;4995314;28;20057;-77
2020/12/04 01:18:39;;;;;;;103.00;54.22;;;;;;;2.73;95.45;99399.09;4994563;28;20061;-77
2020/12/04 01:21:47;;;;;;;102.18;54.58;;;;;;;2.82;95.45;99405.53;4994817;28;20386;-76
2020/12/04 01:24:51;;;;;;;100.97;56.00;;;;;;;2.80;95.51;99402.16;4994402;28;20504;-77
2020/12/04 01:27:55;;;;;;;103.15;54.15;;;;;;;2.79;95.17;99400.47;4994890;28;20072;-77
2020/12/04 01:31:00;;;;;;;96.45;53.95;;;;;;;2.75;95.44;99407.78;4994784;28;20045;-77
2020/12/04 01:34:09;;;;;;;92.95;49.95;;;;;;;2.87;95.21;99412.22;4994672;28;20389;-77
2020/12/04 01:37:14;;;;;;;88.95;47.33;;;;;;;2.83;94.99;99415.19;4994547;28;20045;-77
2020/12/04 01:40:19;;;;;;;99.03;48.38;;;;;;;2.70;95.03;99394.03;4994596;28;20507;-77
2020/12/04 01:43:24;;;;;;;102.50;50.60;;;;;;;2.69;95.53;99387.03;4994550;28;20050;-77
2020/12/04 01:46:29;;;;;;;101.65;48.70;;;;;;;2.68;95.67;99390.63;4994046;28;20049;-77
2020/12/04 01:49:34;;;;;;;108.18;50.83;;;;;;;2.67;95.70;99388.94;4994509;28;20062;-77
2020/12/04 01:52:38;;;;;;;105.40;48.72;;;;;;;2.71;95.64;99384.28;5005630;28;20048;-77
2020/12/04 01:55:42;;;;;;;88.93;47.72;;;;;;;2.70;95.86;99386.06;5033441;28;20496;-76
2020/12/04 01:58:47;;;;;;;101.80;49.45;;;;;;;2.69;95.92;99381.75;5033380;28;20382;-77
2020/12/04 02:02:01;;;;;;;89.97;47.47;;;;;;;2.70;95.85;99388.72;5034047;28;20384;-77
2020/12/04 02:05:05;;;;;;;96.22;48.53;;;;;;;2.77;95.79;99367.94;5021712;28;20072;-77
2020/12/04 02:08:22;;;;;;;90.85;46.20;;;;;;;2.73;95.90;99359.38;5033923;28;20053;-77
2020/12/04 02:11:28;;;;;;;87.97;46.38;;;;;;;2.75;96.07;99367.19;5021584;28;20093;-77
2020/12/04 02:14:33;;;;;;;82.97;43.92;;;;;;;2.82;95.75;99371.09;5034126;28;20095;-77
2020/12/04 02:17:37;;;;;;;74.90;40.70;;;;;;;2.91;95.01;99359.84;5037868;28;20048;-77
2020/12/04 02:20:42;;;;;;;75.05;38.92;;;;;;;2.74;95.36;99361.03;5053666;28;20120;-77
2020/12/04 02:23:48;;;;;;;75.20;37.40;;;;;;;2.74;95.56;99333.72;5040985;28;20046;-77
2020/12/04 02:26:54;;;;;;;70.15;36.28;;;;;;;2.77;95.36;99320.22;5053480;28;20383;-77
2020/12/04 02:29:59;;;;;;;68.18;34.50;;;;;;;2.77;95.22;99318.44;5053882;28;20383;-77
2020/12/04 02:33:04;;;;;;;65.05;34.22;;;;;;;2.73;95.43;99319.63;5057478;28;20044;-76
2020/12/04 02:36:09;;;;;;;71.93;34.22;;;;;;;2.79;95.51;99313.88;5044703;28;20482;-77
2020/12/04 02:39:14;;;;;;;60.53;33.50;;;;;;;2.80;95.36;99318.22;5057072;28;20067;-78
2020/12/04 02:42:18;;;;;;;59.63;31.77;;;;;;;2.91;94.84;99325.41;5057353;28;20407;-78
2020/12/04 02:45:22;;;;;;;56.65;31.70;;;;;;;2.84;94.69;99327.63;5044908;28;20052;-76
2020/12/04 02:48:27;;;;;;;51.22;29.48;;;;;;;2.91;94.75;99320.94;5056940;28;20052;-79
2020/12/04 02:51:31;;;;;;;50.40;29.42;;;;;;;2.87;94.77;99315.97;5044875;28;20048;-78
2020/12/04 02:54:36;;;;;;;48.15;28.27;;;;;;;2.94;94.39;99317.22;5057293;28;20048;-78
2020/12/04 02:57:40;;;;;;;49.42;29.85;;;;;;;2.88;94.65;99312.38;5056640;28;20052;-78
2020/12/04 03:00:44;;;;;;;49.28;27.98;;;;;;;2.86;94.56;99298.38;5056953;28;20052;-79
2020/12/04 03:03:49;;;;;;;47.63;28.00;;;;;;;2.93;94.97;99295.19;5044888;28;20056;-78
2020/12/04 03:06:53;;;;;;;43.13;26.98;;;;;;;2.91;94.44;99291.81;5067036;28;20048;-79
2020/12/04 03:09:57;;;;;;;44.20;27.15;;;;;;;2.93;93.91;99289.88;5044726;28;20048;-77
2020/12/04 03:13:03;;;;;;;43.80;27.10;;;;;;;2.86;94.05;99283.34;5044512;28;20056;-77
2020/12/04 03:16:07;;;;;;;46.13;27.38;;;;;;;2.78;93.83;99292.78;5032988;28;20048;-78
2020/12/04 03:19:11;;;;;;;39.70;25.65;;;;;;;2.77;93.64;99289.28;5044322;28;20052;-78
2020/12/04 03:22:15;;;;;;;33.92;23.42;;;;;;;2.60;93.31;99284.38;5056588;28;20060;-78
2020/12/04 03:25:19;;;;;;;39.20;24.30;;;;;;;2.64;92.74;99281.38;5056644;28;20048;-78
2020/12/04 03:28:23;;;;;;;35.60;24.52;;;;;;;2.65;92.48;99284.88;5044133;28;20490;-78
2020/12/04 03:31:28;;;;;;;36.33;24.35;;;;;;;2.58;91.90;99257.16;5056632;28;20047;-78
2020/12/04 03:34:32;;;;;;;34.40;22.77;;;;;;;2.60;91.16;99237.56;5044103;28;20056;-78
2020/12/04 03:37:36;;;;;;;33.83;23.73;;;;;;;2.62;91.24;99248.03;5044021;28;20048;-77
2020/12/04 03:40:43;;;;;;;34.67;24.13;;;;;;;2.65;91.05;99263.69;5056004;28;20048;-78
2020/12/04 03:43:47;;;;;;;39.97;25.70;;;;;;;2.61;91.20;99256.94;5043704;28;20495;-78
2020/12/04 03:46:51;;;;;;;36.53;24.20;;;;;;;2.67;91.36;99263.59;5055970;28;20056;-78
2020/12/04 03:49:56;;;;;;;38.97;23.90;;;;;;;2.71;91.41;99270.34;5056686;28;20048;-77
2020/12/04 03:53:00;;;;;;;36.33;24.05;;;;;;;2.80;91.25;99251.13;5043110;28;20055;-78
2020/12/04 03:56:05;;;;;;;38.05;24.92;;;;;;;2.81;90.82;99252.84;5055655;28;20056;-77
2020/12/04 03:59:09;;;;;;;40.95;24.67;;;;;;;2.87;90.80;99241.75;5055798;28;20107;-78
2020/12/04 04:02:14;;;;;;;41.85;25.88;;;;;;;2.82;91.04;99247.41;5043635;28;20052;-78
2020/12/04 04:05:18;;;;;;;41.60;25.35;;;;;;;2.77;91.63;99259.28;5055374;28;20067;-78
2020/12/04 04:08:23;;;;;;;39.53;25.35;;;;;;;2.86;91.46;99261.28;5055486;28;20060;-77
2020/12/04 04:11:27;;;;;;;36.65;24.25;;;;;;;2.92;91.78;99261.66;5055635;28;20056;-78
2020/12/04 04:14:31;;;;;;;34.05;22.08;;;;;;;2.96;91.55;99262.31;5043353;28;20475;-78
2020/12/04 04:17:35;;;;;;;30.50;21.30;;;;;;;2.91;91.49;99262.66;5055801;28;20048;-78
2020/12/04 04:20:40;;;;;;;31.83;21.75;;;;;;;2.93;91.04;99260.72;5054945;28;20048;-78
2020/12/04 04:23:43;;;;;;;31.88;21.83;;;;;;;2.90;90.50;99255.66;5055753;28;20055;-78
2020/12/04 04:26:49;;;;;;;34.70;22.27;;;;;;;2.91;90.60;99267.94;5055666;28;20052;-78
2020/12/04 04:29:53;;;;;;;34.55;22.65;;;;;;;2.86;90.48;99248.91;5031672;28;20052;-78
2020/12/04 04:32:57;;;;;;;38.53;23.33;;;;;;;2.82;90.59;99249.22;5020633;28;20056;-77
2020/12/04 04:36:02;;;;;;;39.65;23.25;;;;;;;2.74;90.84;99257.72;5042943;28;20499;-77
2020/12/04 04:39:07;;;;;;;43.28;25.33;;;;;;;2.74;90.99;99254.25;5055014;28;20055;-77
2020/12/04 04:42:11;;;;;;;47.50;25.25;;;;;;;2.82;91.09;99233.31;5043037;28;20055;-78
2020/12/04 04:45:17;;;;;;;43.00;25.48;;;;;;;2.88;91.03;99232.88;5055274;28;20063;-77
2020/12/04 04:48:27;;;;;;;42.33;24.77;;;;;;;2.88;90.81;99223.13;5054587;28;20052;-77
2020/12/04 04:51:31;;;;;;;44.67;25.52;;;;;;;2.76;91.25;99218.72;5055142;28;20407;-77
2020/12/04 04:54:39;;;;;;;45.35;24.65;;;;;;;2.75;91.63;99216.19;5053895;28;20064;-77
2020/12/04 04:57:43;;;;;;;53.10;27.60;;;;;;;2.84;91.76;99215.50;5042632;28;20059;-77
2020/12/04 05:00:48;;;;;;;43.30;24.63;;;;;;;2.87;91.84;99221.41;5054730;28;20495;-77
2020/12/04 05:03:59;;;;;;;46.20;25.02;;;;;;;2.92;91.71;99226.38;5054602;28;20566;-77
2020/12/04 05:07:08;;;;;;;49.00;28.75;;;;;;;2.86;91.95;99203.84;5054866;28;20498;-77
2020/12/04 05:10:20;;;;;;;66.72;37.92;;;;;;;2.79;92.87;99197.28;5042289;28;20048;-77
2020/12/04 05:13:24;;;;;;;57.08;32.55;;;;;;;2.82;93.22;99207.66;5054474;28;20047;-77
2020/12/04 05:16:29;;;;;;;63.67;36.08;;;;;;;2.76;93.38;99212.59;5054695;28;20052;-77
2020/12/04 05:19:38;;;;;;;93.95;47.35;;;;;;;2.70;93.96;99203.28;5042000;28;20056;-77
2020/12/04 05:22:54;;;;;;;84.18;44.38;;;;;;;2.69;94.58;99195.47;5054300;28;20392;-77
2020/12/04 05:25:59;;;;;;;142.70;46.92;;;;;;;2.72;94.96;99188.09;5054188;28;20396;-77
2020/12/04 05:29:05;;;;;;;120.47;48.85;;;;;;;2.64;94.93;99182.56;5054386;28;20051;-77
2020/12/04 05:32:16;;;;;;;99.93;50.03;;;;;;;2.59;95.23;99182.88;5054030;28;20051;-77
2020/12/04 05:35:20;;;;;;;92.97;49.63;;;;;;;2.62;95.42;99180.00;5054347;28;20044;-77
2020/12/04 05:38:25;;;;;;;115.68;55.30;;;;;;;2.60;95.71;99162.53;5041525;28;20052;-77
2020/12/04 05:41:29;;;;;;;108.10;53.22;;;;;;;2.56;96.03;99150.50;5054015;28;20467;-77
2020/12/04 05:44:34;;;;;;;115.80;53.72;;;;;;;2.56;96.21;99139.91;5041938;28;20044;-77
2020/12/04 05:47:41;;;;;;;121.93;56.38;;;;;;;2.53;96.08;99130.38;5053903;28;20487;-76
2020/12/04 05:50:46;;;;;;;125.45;58.08;;;;;;;2.48;96.48;99127.22;5041872;28;20048;-76
2020/12/04 05:53:52;;;;;;;170.35;58.08;;;;;;;2.53;96.61;99140.13;5053257;28;20060;-76
2020/12/04 05:57:01;;;;;;;131.05;57.85;;;;;;;2.56;96.57;99137.25;5041591;28;20052;-76
2020/12/04 06:00:05;;;;;;;119.03;58.25;;;;;;;2.52;96.73;99133.13;5030023;28;20048;-77
2020/12/04 06:03:16;;;;;;;188.80;79.35;;;;;;;2.56;97.06;99131.94;5053778;28;20081;-77
2020/12/04 06:06:31;;;;;;;164.32;69.10;;;;;;;2.51;97.11;99131.44;5041493;28;20380;-77
2020/12/04 06:09:36;;;;;;;138.43;62.47;;;;;;;2.59;97.33;99131.72;5053687;28;20052;-78
2020/12/04 06:12:49;;;;;;;153.85;65.43;;;;;;;2.54;97.34;99136.53;5041441;28;20044;-79
2020/12/04 06:15:53;;;;;;;151.88;61.90;;;;;;;2.57;97.45;99138.91;5053646;28;20044;-77
2020/12/04 06:18:57;;;;;;;144.25;64.18;;;;;;;2.56;97.52;99118.72;5041308;28;20044;-76
2020/12/04 06:22:04;;;;;;;144.43;64.10;;;;;;;2.64;97.32;99121.63;5053579;28;20407;-79
2020/12/04 06:25:08;;;;;;;145.15;64.63;;;;;;;2.62;97.72;99102.34;5053587;28;20040;-76
2020/12/04 06:28:16;;;;;;;143.63;65.65;;;;;;;2.65;97.92;99102.13;5053282;28;20442;-77
2020/12/04 06:31:32;;;;;;;191.52;64.60;;;;;;;2.64;97.84;99097.78;5053528;28;20052;-78
2020/12/04 06:34:42;;;;;;;129.80;61.97;;;;;;;2.61;97.99;99084.78;5053432;28;20048;-78
2020/12/04 06:37:46;;;;;;;171.82;65.32;;;;;;;2.59;97.96;99086.69;5053433;28;20060;-77
2020/12/04 06:40:50;;;;;;;;;;;;;;;2.62;98.13;99087.28;5041602;28;20059;-78
2020/12/04 06:44:15;;;;;;;194.70;61.58;;;;;;;2.62;98.25;99095.25;5053104;28;20275;-78
2020/12/04 06:47:19;;;;;;;192.40;59.97;;;;;;;2.74;98.29;99106.69;5041293;28;20048;-78
2020/12/04 06:50:50;;;;;;;212.20;65.88;;;;;;;2.64;98.51;99103.91;5041111;28;20067;-78
2020/12/04 06:53:54;;;;;;;239.68;64.00;;;;;;;2.62;98.44;99097.03;5004043;28;20388;-78
2020/12/04 06:56:59;;;;;;;229.45;69.93;;;;;;;2.62;98.53;99100.53;5013601;28;20057;-77
2020/12/04 07:00:04;;;;;;;255.77;71.57;;;;;;;2.66;98.92;99098.50;5013460;28;20432;-77
2020/12/04 07:03:10;;;;;;;267.65;73.20;;;;;;;2.62;99.18;99091.75;5012768;28;20484;-77
2020/12/04 07:06:25;;;;;;;272.73;74.57;;;;;;;2.61;99.57;99082.97;5001450;28;20057;-78
2020/12/04 07:09:30;;;;;;;234.55;74.72;;;;;;;2.67;99.33;99100.19;5001696;28;20065;-77
2020/12/04 07:12:34;;;;;;;345.98;81.85;;;;;;;2.59;99.47;99084.06;4990265;28;20504;-77
2020/12/04 07:15:39;;;;;;;323.17;85.07;;;;;;;2.63;99.60;99073.09;5001325;28;20385;-77
2020/12/04 07:30:14;;;;;;;363.63;85.95;;;;;;;2.53;100.00;99073.91;4936911;29;20051;-77
2020/12/04 07:33:18;;;;;;;315.42;88.28;;;;;;;2.58;100.00;99085.84;4913630;29;20036;-78
2020/12/04 07:36:23;;;;;;;341.45;89.35;;;;;;;2.60;100.00;99093.66;4914383;29;20055;-77
2020/12/04 07:39:36;;;;;;;363.27;90.32;;;;;;;2.63;100.00;99094.28;4914902;29;20479;-76
2020/12/04 07:42:40;;;;;;;571.95;92.80;;;;;;;2.64;100.00;99077.41;4904624;29;20439;-77
2020/12/04 07:45:44;;;;;;;334.98;87.30;;;;;;;2.61;100.00;99066.22;4914993;29;20070;-77
2020/12/04 07:49:09;;;;;;;292.33;81.10;;;;;;;2.64;100.00;99072.13;4901473;29;20048;-77
2020/12/04 07:52:22;;;;;;;280.08;75.40;;;;;;;2.68;100.00;99071.91;4900215;28;20655;-77
2020/12/04 07:55:36;;;;;;;287.70;75.13;;;;;;;2.66;100.00;99057.94;4941709;29;20052;-77
2020/12/04 07:58:42;;;;;;;291.42;78.47;;;;;;;2.68;100.00;99045.41;4914125;29;20396;-79
2020/12/04 08:01:48;;;;;;;319.52;78.32;;;;;;;2.67;100.00;99044.56;4948977;28;20402;-76
2020/12/04 08:04:54;;;;;;;358.05;77.97;;;;;;;2.69;100.00;99055.91;4954756;28;20046;-76
2020/12/04 08:07:59;;;;;;;304.67;74.45;;;;;;;2.73;100.00;99052.06;4941147;28;20437;-76
2020/12/04 08:11:09;;;;;;;312.45;77.20;;;;;;;2.75;100.00;99058.06;4941661;28;20509;-77
2020/12/04 08:14:21;;;;;;;312.85;79.10;;;;;;;2.71;100.00;99040.72;4951347;28;20047;-77
2020/12/04 08:17:30;;;;;;;276.20;74.65;;;;;;;2.72;100.00;99039.75;4950610;28;20058;-78
2020/12/04 08:20:34;;;;;;;277.70;69.20;;;;;;;2.74;100.00;99039.66;4959954;28;20051;-77
2020/12/04 08:23:39;;;;;;;285.75;68.80;;;;;;;2.73;100.00;99038.81;4993855;28;20046;-78
2020/12/04 08:26:56;;;;;;;254.30;70.20;;;;;;;2.79;100.00;99048.91;4994597;28;20043;-77
2020/12/04 08:30:03;;;;;;;280.95;68.07;;;;;;;2.79;100.00;99040.97;4994460;28;20046;-77
2020/12/04 08:33:09;;;;;;;252.43;64.60;;;;;;;2.92;100.00;99047.00;5023838;28;20037;-77
2020/12/04 08:36:14;;;;;;;234.23;63.03;;;;;;;2.89;100.00;99043.78;5033539;28;20038;-77
2020/12/04 08:39:19;;;;;;;197.85;61.83;;;;;;;2.95;100.00;99038.00;5031664;28;20488;-77
2020/12/04 08:42:31;;;;;;;196.15;60.35;;;;;;;3.26;100.00;99032.81;5009816;28;20485;-80
2020/12/04 08:45:36;;;;;;;215.80;55.30;;;;;;;3.38;100.00;99024.84;4995404;28;20042;-78
2020/12/04 08:48:40;;;;;;;175.55;54.78;;;;;;;3.12;100.00;99013.66;5009293;28;20476;-77
2020/12/04 08:51:48;;;;;;;194.07;56.40;;;;;;;3.09;100.00;99001.47;5014813;28;20075;-78
2020/12/04 08:54:53;;;;;;;196.07;58.38;;;;;;;3.03;100.00;99006.44;5012760;28;20100;-77
2020/12/04 08:57:57;;;;;;;169.75;55.53;;;;;;;3.03;100.00;98994.03;5006944;28;20054;-77
2020/12/04 09:01:01;;;;;;;198.70;57.45;;;;;;;3.03;100.00;98988.72;5014297;28;20046;-76
2020/12/04 09:04:06;;;;;;;162.13;56.20;;;;;;;3.00;100.00;98996.91;5012112;28;20050;-76
2020/12/04 09:07:10;;;;;;;192.40;57.72;;;;;;;3.07;100.00;98992.81;5012722;28;20042;-77
2020/12/04 09:10:16;;;;;;;165.07;55.67;;;;;;;3.20;100.00;98993.53;5014318;28;20397;-77
2020/12/04 09:13:21;;;;;;;170.95;54.80;;;;;;;3.14;100.00;98991.38;5012771;28;20050;-76
2020/12/04 09:16:25;;;;;;;148.18;56.92;;;;;;;3.23;100.00;98987.97;5014393;28;20045;-77
2020/12/04 09:19:30;;;;;;;160.80;57.42;;;;;;;3.29;100.00;98982.19;5012869;28;20053;-76
2020/12/04 09:22:34;;;;;;;154.95;56.88;;;;;;;3.29;100.00;99006.06;5013453;28;20046;-77
2020/12/04 09:25:39;;;;;;;130.18;54.00;;;;;;;3.40;99.68;99007.88;5014197;28;20045;-77
2020/12/04 09:28:44;;;;;;;152.98;54.17;;;;;;;3.33;99.74;98992.56;5012719;28;20061;-77
2020/12/04 09:31:48;;;;;;;133.48;53.53;;;;;;;3.30;99.55;98980.38;5014111;28;20065;-76
2020/12/04 09:34:53;;;;;;;147.38;56.78;;;;;;;3.26;99.77;98977.13;5013807;28;20400;-76
2020/12/04 09:37:57;;;;;;;154.85;58.05;;;;;;;3.35;99.78;98972.91;5013537;28;20057;-79
2020/12/04 09:41:01;;;;;;;150.07;58.15;;;;;;;3.75;100.00;98967.88;5012234;28;20405;-77
2020/12/04 09:44:05;;;;;;;137.57;56.42;;;;;;;3.51;99.71;98962.72;5011198;28;20042;-76
2020/12/04 09:47:10;;;;;;;150.27;61.47;;;;;;;3.47;99.58;98961.31;5013107;28;20072;-76
2020/12/04 09:50:15;;;;;;;146.15;60.50;;;;;;;3.49;99.45;98958.53;5026803;28;21605;-77
2020/12/04 09:53:19;;;;;;;146.73;62.13;;;;;;;3.45;99.65;98947.34;5055689;28;20048;-77
2020/12/04 09:56:24;;;;;;;152.35;61.72;;;;;;;3.42;99.67;98947.56;5061116;28;20056;-77
2020/12/04 09:59:28;;;;;;;142.77;60.53;;;;;;;3.43;99.47;98953.72;5072709;28;20051;-77
2020/12/04 10:02:33;;;;;;;152.07;64.15;;;;;;;3.46;99.55;98953.47;5057664;28;20056;-77
2020/12/04 10:05:37;;;;;;;145.10;61.33;;;;;;;3.52;99.45;98952.97;5053001;28;20044;-77
2020/12/04 10:08:42;;;;;;;138.80;60.67;;;;;;;3.60;99.47;98950.53;5055406;28;20415;-77
2020/12/04 10:11:47;;;;;;;129.60;61.88;;;;;;;3.54;99.63;98954.53;5038577;28;20048;-78
2020/12/04 10:14:52;;;;;;;130.52;62.13;;;;;;;3.59;99.31;98960.31;5052552;28;20048;-76
2020/12/04 10:17:56;;;;;;;123.35;60.30;;;;;;;3.71;99.26;98961.09;5051454;28;20048;-78
2020/12/04 10:21:00;;;;;;;115.32;60.38;;;;;;;3.74;99.36;98944.94;5052909;28;20514;-77
2020/12/04 10:24:07;;;;;;;121.20;61.10;;;;;;;3.76;99.52;98932.38;5052139;28;20056;-77
2020/12/04 10:27:11;;;;;;;109.75;61.03;;;;;;;3.87;99.27;98908.47;5051894;28;20056;-78
2020/12/04 10:30:16;;;;;;;98.55;59.33;;;;;;;3.97;99.15;98877.53;5048663;28;20404;-78
2020/12/04 10:33:20;;;;;;;91.78;57.75;;;;;;;4.03;99.10;98847.78;5059356;28;20056;-77
2020/12/04 10:36:26;;;;;;;75.47;49.83;;;;;;;4.22;98.34;98861.16;5073359;28;20051;-77
2020/12/04 10:39:31;;;;;;;75.95;52.13;;;;;;;4.23;98.33;98852.25;5064228;28;20400;-77
2020/12/04 10:42:35;;;;;;;72.10;48.55;;;;;;;4.43;98.00;98862.00;5056344;28;20052;-77
2020/12/04 10:45:39;;;;;;;63.47;43.58;;;;;;;4.54;97.26;98869.88;5072715;28;20052;-77
2020/12/04 10:48:44;;;;;;;62.55;44.08;;;;;;;4.60;96.87;98861.38;5072226;28;20076;-77
2020/12/04 10:51:56;;;;;;;62.72;43.17;;;;;;;4.66;96.31;98843.22;5037577;28;20506;-77
2020/12/04 10:55:00;;;;;;;61.63;43.15;;;;;;;4.67;95.87;98824.47;5024429;28;20052;-77
2020/12/04 10:58:04;;;;;;;67.13;45.72;;;;;;;4.71;95.94;98830.38;5051002;28;20056;-78
2020/12/04 11:01:13;;;;;;;61.90;42.00;;;;;;;4.75;95.56;98821.97;5063734;28;20114;-76
2020/12/04 11:07:41;;;;;;;57.83;43.17;;;;;;;4.77;95.37;98827.16;5055353;28;20060;-78
2020/12/04 11:10:45;;;;;;;57.55;41.72;;;;;;;4.78;95.49;98820.88;5055590;28;20051;-77
2020/12/04 11:13:50;;;;;;;61.75;43.20;;;;;;;4.77;95.51;98822.69;5062478;28;20052;-77
2020/12/04 11:16:54;;;;;;;59.22;42.45;;;;;;;4.80;95.31;98821.56;5075771;28;20047;-78
2020/12/04 11:19:59;;;;;;;66.30;44.60;;;;;;;4.87;95.34;98814.72;5075570;28;20502;-77
2020/12/04 11:23:04;;;;;;;64.13;44.63;;;;;;;4.83;95.48;98816.00;5071717;28;20052;-76
2020/12/04 11:26:09;;;;;;;67.95;47.70;;;;;;;4.89;95.60;98818.13;5054679;28;20403;-77
2020/12/04 11:29:13;;;;;;;69.93;46.65;;;;;;;4.92;95.95;98794.75;5054507;28;20056;-76
2020/12/04 11:32:17;;;;;;;69.60;47.95;;;;;;;4.94;96.23;98783.97;5054618;28;20052;-76
2020/12/04 11:35:22;;;;;;;69.13;45.78;;;;;;;4.96;96.10;98772.19;5027031;28;20388;-77
2020/12/04 11:38:26;;;;;;;67.55;48.00;;;;;;;4.94;96.22;98775.97;5065193;28;20043;-77
2020/12/04 11:41:31;;;;;;;71.03;47.10;;;;;;;4.98;96.65;98774.75;5075158;28;20063;-77
2020/12/04 11:44:36;;;;;;;74.38;49.50;;;;;;;4.99;96.62;98768.44;5052984;28;20056;-77
2020/12/04 11:47:42;;;;;;;74.95;49.47;;;;;;;5.08;96.62;98760.50;5073474;28;20063;-77
2020/12/04 11:50:46;;;;;;;71.10;49.28;;;;;;;5.15;96.64;98750.13;5075056;28;20395;-76
2020/12/04 11:53:51;;;;;;;76.57;50.92;;;;;;;5.12;96.68;98715.81;5074716;28;20056;-77
2020/12/04 11:56:55;;;;;;;72.75;49.35;;;;;;;5.16;96.65;98712.75;5075233;28;20052;-77
2020/12/04 12:00:00;;;;;;;70.47;46.50;;;;;;;5.25;96.28;98727.88;5074726;28;20059;-77
2020/12/04 12:03:05;;;;;;;76.65;46.83;;;;;;;5.24;96.02;98725.34;5072563;28;21035;-76
2020/12/04 12:06:09;;;;;;;74.35;54.00;;;;;;;5.16;96.33;98707.41;5074420;28;20047;-76
2020/12/04 12:09:14;;;;;;;65.82;46.50;;;;;;;5.22;96.45;98703.38;5074358;28;20063;-76
2020/12/04 12:12:19;;;;;;;65.70;45.60;;;;;;;5.31;96.37;98710.47;5074637;28;20063;-76
2020/12/04 12:15:23;;;;;;;69.22;46.30;;;;;;;5.39;96.20;98704.47;5062664;28;20072;-76
2020/12/04 12:18:29;;;;;;;64.60;45.03;;;;;;;5.35;96.12;98681.78;5074798;28;20052;-77
2020/12/04 12:21:35;;;;;;;67.32;46.67;;;;;;;5.36;96.24;98676.31;5074512;28;20498;-76
2020/12/04 12:24:41;;;;;;;70.43;46.70;;;;;;;5.32;96.63;98668.78;5074310;28;20067;-77
2020/12/04 12:27:45;;;;;;;69.75;46.63;;;;;;;5.46;96.35;98657.66;5068073;28;20052;-76
2020/12/04 12:30:50;;;;;;;75.47;51.72;;;;;;;5.37;96.84;98655.88;5040141;28;20052;-77
2020/12/04 12:33:55;;;;;;;79.43;52.55;;;;;;;5.36;96.58;98652.38;5059853;28;20044;-78
2020/12/04 12:36:59;;;;;;;75.22;51.05;;;;;;;5.38;96.51;98652.25;5059045;28;20068;-79
2020/12/04 12:40:06;;;;;;;77.47;52.03;;;;;;;5.33;96.91;98658.00;5052968;28;20399;-78
2020/12/04 12:43:10;;;;;;;78.82;52.25;;;;;;;5.41;97.00;98652.78;5047227;28;20043;-75
2020/12/04 12:46:15;;;;;;;76.07;51.90;;;;;;;5.53;96.89;98661.47;5074738;28;20047;-78
2020/12/04 12:49:19;;;;;;;69.85;47.28;;;;;;;5.56;96.82;98656.66;5073679;28;20044;-85
2020/12/04 12:52:24;;;;;;;66.10;45.17;;;;;;;5.76;96.77;98663.59;5059081;28;20071;-79
2020/12/04 12:55:28;;;;;;;64.95;45.67;;;;;;;5.64;96.77;98659.44;5046398;28;20048;-78
2020/12/04 12:58:33;;;;;;;70.40;47.83;;;;;;;5.70;96.82;98648.19;5047056;28;20044;-78
2020/12/04 13:01:37;;;;;;;68.38;48.97;;;;;;;5.55;96.79;98659.47;5053706;28;20059;-78
2020/12/04 13:04:42;;;;;;;69.68;47.88;;;;;;;5.67;96.63;98656.50;5069727;28;20048;-78
2020/12/04 13:07:46;;;;;;;64.05;45.15;;;;;;;5.67;96.78;98658.31;5073377;28;20391;-77
2020/12/04 13:10:51;;;;;;;65.22;45.75;;;;;;;5.67;96.77;98656.50;5061526;28;20051;-78
2020/12/04 13:13:55;;;;;;;64.30;45.95;;;;;;;5.63;96.82;98656.94;5060759;28;20048;-78
2020/12/04 13:16:59;;;;;;;68.88;47.15;;;;;;;5.61;96.96;98641.09;5034673;28;20052;-78
2020/12/04 13:20:05;;;;;;;65.80;45.58;;;;;;;5.74;96.92;98641.63;5051421;28;20135;-77
2020/12/04 13:23:17;;;;;;;71.60;47.22;;;;;;;5.74;96.85;98628.31;5058320;28;20414;-76
2020/12/04 13:26:39;;;;;;;71.25;48.17;;;;;;;5.82;96.26;98617.78;5073766;28;20071;-77
2020/12/04 13:29:43;;;;;;;69.32;45.30;;;;;;;5.82;96.54;98624.91;5072987;28;20047;-77
2020/12/04 13:32:48;;;;;;;72.35;49.42;;;;;;;5.71;96.82;98628.59;5073185;28;20506;-77
2020/12/04 13:35:52;;;;;;;64.88;47.63;;;;;;;5.83;96.95;98631.91;5046133;28;20056;-77
2020/12/04 13:38:57;;;;;;;60.75;44.20;;;;;;;5.79;97.33;98623.38;5049168;28;20048;-78
2020/12/04 13:42:01;;;;;;;65.38;45.50;;;;;;;5.81;97.19;98625.91;5073555;28;20505;-77
2020/12/04 13:45:06;;;;;;;65.03;43.85;;;;;;;5.79;97.44;98620.72;5068078;28;20048;-77
2020/12/04 13:48:10;;;;;;;65.15;45.95;;;;;;;5.80;97.56;98619.72;5072655;28;20505;-77
2020/12/04 13:51:15;;;;;;;66.88;45.05;;;;;;;5.84;97.41;98638.91;5060810;28;20063;-77
2020/12/04 13:54:19;;;;;;;66.47;45.95;;;;;;;5.79;97.56;98634.03;5066386;28;20072;-76
2020/12/04 13:57:24;;;;;;;59.42;43.65;;;;;;;5.75;97.47;98637.97;5044551;28;20415;-76
2020/12/04 14:00:28;;;;;;;66.07;47.00;;;;;;;5.70;97.55;98636.75;5053001;28;20044;-76
2020/12/04 14:03:33;;;;;;;68.10;48.83;;;;;;;5.64;97.31;98632.00;5054921;28;20071;-77
2020/12/04 14:06:37;;;;;;;70.10;51.63;;;;;;;5.56;97.52;98630.06;5073770;28;20053;-76
2020/12/04 14:09:44;;;;;;;64.55;49.80;;;;;;;5.52;97.52;98623.34;5050283;28;20044;-77
2020/12/04 14:12:49;;;;;;;67.50;49.45;;;;;;;5.58;97.22;98625.41;5052394;28;20048;-77
2020/12/04 14:15:53;;;;;;;59.63;48.15;;;;;;;5.57;97.19;98630.91;5053644;28;20146;-77
2020/12/04 14:18:57;;;;;;;56.17;42.75;;;;;;;5.55;97.01;98627.56;5052706;28;20064;-77
2020/12/04 14:22:02;;;;;;;52.40;41.05;;;;;;;5.58;97.07;98638.72;5053489;28;20396;-77
2020/12/04 14:25:08;;;;;;;52.70;41.42;;;;;;;5.55;96.87;98625.75;5052475;28;20060;-76
2020/12/04 14:28:13;;;;;;;52.78;40.97;;;;;;;5.52;96.35;98625.16;5056066;28;20052;-78
2020/12/04 14:31:17;;;;;;;53.67;41.28;;;;;;;5.51;96.34;98636.78;5056963;28;20056;-77
2020/12/04 14:34:21;;;;;;;51.28;40.70;;;;;;;5.48;96.42;98631.78;5056008;28;20047;-76